sensor_id;sensor_type;location;lat;lon;timestamp;temperature;humidity
12578;DHT22;6354;51.026;8.968;2022-09-21T00:00:57;7.70;99.90
12578;DHT22;6354;51.026;8.968;2022-09-21T00:03:32;7.70;99.90
12578;DHT22;6354;51.026;8.968;2022-09-21T00:06:04;7.70;99.90
12578;DHT22;6354;51.026;8.968;2022-09-21T00:08:32;7.60;99.90
12578;DHT22;6354;51.026;8.968;2022-09-21T00:11:00;7.60;99.90
12578;DHT22;6354;51.026;8.968;2022-09-21T00:13:29;7.60;99.90
12578;DHT22;6354;51.026;8.968;2022-09-21T00:15:59;7.50;99.90
12578;DHT22;6354;51.026;8.968;2022-09-21T00:18:27;7.50;99.90
12578;DHT22;6354;51.026;8.968;2022-09-21T00:20:56;7.50;99.90
12578;DHT22;6354;51.026;8.968;2022-09-21T00:23:24;7.40;99.90
12578;DHT22;6354;51.026;8.968;2022-09-21T00:26:03;7.40;99.90
12578;DHT22;6354;51.026;8.968;2022-09-21T00:28:31;7.40;99.90
12578;DHT22;6354;51.026;8.968;2022-09-21T00:31:03;7.40;99.90
12578;DHT22;6354;51.026;8.968;2022-09-21T00:33:32;7.30;99.90
12578;DHT22;6354;51.026;8.968;2022-09-21T00:36:04;7.30;99.90
12578;DHT22;6354;51.026;8.968;2022-09-21T00:38:33;7.30;99.90
12578;DHT22;6354;51.026;8.968;2022-09-21T00:41:02;7.20;99.90
12578;DHT22;6354;51.026;8.968;2022-09-21T00:43:33;7.20;99.90
12578;DHT22;6354;51.026;8.968;2022-09-21T00:46:04;7.20;99.90
12578;DHT22;6354;51.026;8.968;2022-09-21T00:48:33;7.20;99.90
12578;DHT22;6354;51.026;8.968;2022-09-21T00:51:05;7.20;99.90
12578;DHT22;6354;51.026;8.968;2022-09-21T00:53:35;7.10;99.90
12578;DHT22;6354;51.026;8.968;2022-09-21T00:56:05;7.10;99.90
12578;DHT22;6354;51.026;8.968;2022-09-21T00:58:39;7.10;99.90
12578;DHT22;6354;51.026;8.968;2022-09-21T01:01:08;7.10;99.90
12578;DHT22;6354;51.026;8.968;2022-09-21T01:03:36;7.10;99.90
12578;DHT22;6354;51.026;8.968;2022-09-21T01:06:07;7.00;99.90
12578;DHT22;6354;51.026;8.968;2022-09-21T01:08:35;7.00;99.90
12578;DHT22;6354;51.026;8.968;2022-09-21T01:11:13;7.00;99.90
12578;DHT22;6354;51.026;8.968;2022-09-21T01:13:52;7.00;99.90
12578;DHT22;6354;51.026;8.968;2022-09-21T01:16:27;7.00;99.90
12578;DHT22;6354;51.026;8.968;2022-09-21T01:19:02;6.90;99.90
12578;DHT22;6354;51.026;8.968;2022-09-21T01:21:34;6.90;99.90
12578;DHT22;6354;51.026;8.968;2022-09-21T01:30:07;6.80;99.90
12578;DHT22;6354;51.026;8.968;2022-09-21T01:32:41;6.80;99.90
12578;DHT22;6354;51.026;8.968;2022-09-21T01:35:15;6.80;99.90
12578;DHT22;6354;51.026;8.968;2022-09-21T01:37:47;6.80;99.90
12578;DHT22;6354;51.026;8.968;2022-09-21T01:40:20;6.80;99.90
12578;DHT22;6354;51.026;8.968;2022-09-21T01:42:49;6.70;99.90
12578;DHT22;6354;51.026;8.968;2022-09-21T01:45:24;6.60;99.90
12578;DHT22;6354;51.026;8.968;2022-09-21T01:47:56;6.60;99.90
12578;DHT22;6354;51.026;8.968;2022-09-21T01:50:27;6.60;99.90
12578;DHT22;6354;51.026;8.968;2022-09-21T01:52:59;6.50;99.90
12578;DHT22;6354;51.026;8.968;2022-09-21T01:55:33;6.50;99.90
12578;DHT22;6354;51.026;8.968;2022-09-21T01:58:05;6.50;99.90
12578;DHT22;6354;51.026;8.968;2022-09-21T02:00:39;6.50;99.90
12578;DHT22;6354;51.026;8.968;2022-09-21T02:03:11;6.50;99.90
12578;DHT22;6354;51.026;8.968;2022-09-21T02:05:41;6.40;99.90
12578;DHT22;6354;51.026;8.968;2022-09-21T02:08:10;6.40;99.90
12578;DHT22;6354;51.026;8.968;2022-09-21T02:10:41;6.40;99.90
12578;DHT22;6354;51.026;8.968;2022-09-21T02:13:11;6.30;99.90
12578;DHT22;6354;51.026;8.968;2022-09-21T02:18:42;6.30;99.90
12578;DHT22;6354;51.026;8.968;2022-09-21T02:21:22;6.20;99.90
12578;DHT22;6354;51.026;8.968;2022-09-21T02:23:56;6.20;99.90
12578;DHT22;6354;51.026;8.968;2022-09-21T02:26:32;6.20;99.90
12578;DHT22;6354;51.026;8.968;2022-09-21T02:29:09;6.20;99.90
12578;DHT22;6354;51.026;8.968;2022-09-21T02:31:46;6.20;99.90
12578;DHT22;6354;51.026;8.968;2022-09-21T02:34:20;6.20;99.90
12578;DHT22;6354;51.026;8.968;2022-09-21T02:36:53;6.20;99.90
12578;DHT22;6354;51.026;8.968;2022-09-21T02:39:34;6.10;99.90
12578;DHT22;6354;51.026;8.968;2022-09-21T02:42:09;6.10;99.90
12578;DHT22;6354;51.026;8.968;2022-09-21T02:44:40;6.10;99.90
12578;DHT22;6354;51.026;8.968;2022-09-21T02:47:16;6.10;99.90
12578;DHT22;6354;51.026;8.968;2022-09-21T02:49:48;6.10;99.90
12578;DHT22;6354;51.026;8.968;2022-09-21T02:52:18;6.10;99.90
12578;DHT22;6354;51.026;8.968;2022-09-21T02:54:49;6.10;99.90
12578;DHT22;6354;51.026;8.968;2022-09-21T02:57:19;6.10;99.90
12578;DHT22;6354;51.026;8.968;2022-09-21T02:59:48;6.10;99.90
12578;DHT22;6354;51.026;8.968;2022-09-21T03:02:18;6.00;99.90
12578;DHT22;6354;51.026;8.968;2022-09-21T03:04:47;6.10;99.90
12578;DHT22;6354;51.026;8.968;2022-09-21T03:07:16;6.10;99.90
12578;DHT22;6354;51.026;8.968;2022-09-21T03:09:44;6.10;99.90
12578;DHT22;6354;51.026;8.968;2022-09-21T03:12:12;6.10;99.90
12578;DHT22;6354;51.026;8.968;2022-09-21T03:14:40;6.00;99.90
12578;DHT22;6354;51.026;8.968;2022-09-21T03:17:09;6.00;99.90
12578;DHT22;6354;51.026;8.968;2022-09-21T03:19:38;6.00;99.90
12578;DHT22;6354;51.026;8.968;2022-09-21T03:22:06;6.00;99.90
12578;DHT22;6354;51.026;8.968;2022-09-21T03:24:34;5.90;99.90
12578;DHT22;6354;51.026;8.968;2022-09-21T03:27:22;5.90;99.90
12578;DHT22;6354;51.026;8.968;2022-09-21T03:29:51;5.90;99.90
12578;DHT22;6354;51.026;8.968;2022-09-21T03:32:19;5.90;99.90
12578;DHT22;6354;51.026;8.968;2022-09-21T03:34:48;5.90;99.90
12578;DHT22;6354;51.026;8.968;2022-09-21T03:37:16;5.80;99.90
12578;DHT22;6354;51.026;8.968;2022-09-21T03:39:44;5.80;99.90
12578;DHT22;6354;51.026;8.968;2022-09-21T03:42:12;5.80;99.90
12578;DHT22;6354;51.026;8.968;2022-09-21T03:44:40;5.80;99.90
12578;DHT22;6354;51.026;8.968;2022-09-21T03:47:09;5.80;99.90
12578;DHT22;6354;51.026;8.968;2022-09-21T03:49:37;5.70;99.90
12578;DHT22;6354;51.026;8.968;2022-09-21T03:52:06;5.70;99.90
12578;DHT22;6354;51.026;8.968;2022-09-21T03:54:34;5.80;99.90
12578;DHT22;6354;51.026;8.968;2022-09-21T03:57:02;5.80;99.90
12578;DHT22;6354;51.026;8.968;2022-09-21T03:59:30;5.80;99.90
12578;DHT22;6354;51.026;8.968;2022-09-21T04:01:58;5.80;99.90
12578;DHT22;6354;51.026;8.968;2022-09-21T04:04:26;5.80;99.90
12578;DHT22;6354;51.026;8.968;2022-09-21T04:06:54;5.70;99.90
12578;DHT22;6354;51.026;8.968;2022-09-21T04:09:24;5.80;99.90
12578;DHT22;6354;51.026;8.968;2022-09-21T04:11:52;5.70;99.90
12578;DHT22;6354;51.026;8.968;2022-09-21T04:14:20;5.70;99.90
12578;DHT22;6354;51.026;8.968;2022-09-21T04:16:49;5.70;99.90
12578;DHT22;6354;51.026;8.968;2022-09-21T04:19:17;5.70;99.90
12578;DHT22;6354;51.026;8.968;2022-09-21T04:21:47;5.70;99.90
12578;DHT22;6354;51.026;8.968;2022-09-21T04:24:17;5.70;99.90
12578;DHT22;6354;51.026;8.968;2022-09-21T04:26:47;5.60;99.90
12578;DHT22;6354;51.026;8.968;2022-09-21T04:29:15;5.70;99.90
12578;DHT22;6354;51.026;8.968;2022-09-21T04:31:43;5.70;99.90
12578;DHT22;6354;51.026;8.968;2022-09-21T04:34:12;5.60;99.90
12578;DHT22;6354;51.026;8.968;2022-09-21T04:36:40;5.60;99.90
12578;DHT22;6354;51.026;8.968;2022-09-21T04:39:09;5.60;99.90
12578;DHT22;6354;51.026;8.968;2022-09-21T04:41:37;5.60;99.90
12578;DHT22;6354;51.026;8.968;2022-09-21T04:44:06;5.60;99.90
12578;DHT22;6354;51.026;8.968;2022-09-21T04:46:34;5.60;99.90
12578;DHT22;6354;51.026;8.968;2022-09-21T04:49:02;5.60;99.90
12578;DHT22;6354;51.026;8.968;2022-09-21T04:51:30;5.50;99.90
12578;DHT22;6354;51.026;8.968;2022-09-21T04:53:59;5.50;99.90
12578;DHT22;6354;51.026;8.968;2022-09-21T04:56:27;5.50;99.90
12578;DHT22;6354;51.026;8.968;2022-09-21T04:58:56;5.50;99.90
12578;DHT22;6354;51.026;8.968;2022-09-21T05:01:25;5.50;99.90
12578;DHT22;6354;51.026;8.968;2022-09-21T05:03:53;5.50;99.90
12578;DHT22;6354;51.026;8.968;2022-09-21T05:06:24;5.50;99.90
12578;DHT22;6354;51.026;8.968;2022-09-21T05:08:52;5.50;99.90
12578;DHT22;6354;51.026;8.968;2022-09-21T05:11:38;5.50;99.90
12578;DHT22;6354;51.026;8.968;2022-09-21T05:14:07;5.50;99.90
12578;DHT22;6354;51.026;8.968;2022-09-21T05:16:36;5.50;99.90
12578;DHT22;6354;51.026;8.968;2022-09-21T05:19:04;5.40;99.90
12578;DHT22;6354;51.026;8.968;2022-09-21T05:21:33;5.40;99.90
12578;DHT22;6354;51.026;8.968;2022-09-21T05:24:02;5.40;99.90
12578;DHT22;6354;51.026;8.968;2022-09-21T05:26:30;5.50;99.90
12578;DHT22;6354;51.026;8.968;2022-09-21T05:28:58;5.50;99.90
12578;DHT22;6354;51.026;8.968;2022-09-21T05:31:40;5.50;99.90
12578;DHT22;6354;51.026;8.968;2022-09-21T05:34:28;5.50;99.90
12578;DHT22;6354;51.026;8.968;2022-09-21T05:37:06;5.50;99.90
12578;DHT22;6354;51.026;8.968;2022-09-21T05:39:36;5.50;99.90
12578;DHT22;6354;51.026;8.968;2022-09-21T05:42:05;5.50;99.90
12578;DHT22;6354;51.026;8.968;2022-09-21T05:44:33;5.50;99.90
12578;DHT22;6354;51.026;8.968;2022-09-21T05:47:19;5.60;99.90
12578;DHT22;6354;51.026;8.968;2022-09-21T05:49:57;5.60;99.90
12578;DHT22;6354;51.026;8.968;2022-09-21T05:52:32;5.60;99.90
12578;DHT22;6354;51.026;8.968;2022-09-21T05:55:06;5.60;99.90
12578;DHT22;6354;51.026;8.968;2022-09-21T05:57:42;5.70;99.90
12578;DHT22;6354;51.026;8.968;2022-09-21T06:00:16;5.70;99.90
12578;DHT22;6354;51.026;8.968;2022-09-21T06:05:43;5.70;99.90
12578;DHT22;6354;51.026;8.968;2022-09-21T06:08:11;5.80;99.90
12578;DHT22;6354;51.026;8.968;2022-09-21T06:10:40;5.90;99.90
12578;DHT22;6354;51.026;8.968;2022-09-21T06:13:08;5.90;99.90
12578;DHT22;6354;51.026;8.968;2022-09-21T06:15:36;5.90;99.90
12578;DHT22;6354;51.026;8.968;2022-09-21T06:18:06;6.00;99.90
12578;DHT22;6354;51.026;8.968;2022-09-21T06:20:38;6.00;99.90
12578;DHT22;6354;51.026;8.968;2022-09-21T06:23:09;6.10;99.90
12578;DHT22;6354;51.026;8.968;2022-09-21T06:25:37;6.10;99.90
12578;DHT22;6354;51.026;8.968;2022-09-21T06:28:07;6.20;99.90
12578;DHT22;6354;51.026;8.968;2022-09-21T06:30:36;6.30;99.90
12578;DHT22;6354;51.026;8.968;2022-09-21T06:33:07;6.40;99.90
12578;DHT22;6354;51.026;8.968;2022-09-21T06:35:35;6.40;99.90
12578;DHT22;6354;51.026;8.968;2022-09-21T06:38:06;6.60;99.90
12578;DHT22;6354;51.026;8.968;2022-09-21T06:40:35;6.70;99.90
12578;DHT22;6354;51.026;8.968;2022-09-21T06:43:04;6.90;99.90
12578;DHT22;6354;51.026;8.968;2022-09-21T06:45:32;7.50;99.90
12578;DHT22;6354;51.026;8.968;2022-09-21T06:48:01;8.10;99.90
12578;DHT22;6354;51.026;8.968;2022-09-21T06:50:30;8.60;99.90
12578;DHT22;6354;51.026;8.968;2022-09-21T06:52:59;8.90;99.90
12578;DHT22;6354;51.026;8.968;2022-09-21T06:55:28;9.20;99.90
12578;DHT22;6354;51.026;8.968;2022-09-21T06:57:59;9.50;99.90
12578;DHT22;6354;51.026;8.968;2022-09-21T07:00:28;9.70;99.90
12578;DHT22;6354;51.026;8.968;2022-09-21T07:02:56;9.80;99.90
12578;DHT22;6354;51.026;8.968;2022-09-21T07:05:24;10.00;99.90
12578;DHT22;6354;51.026;8.968;2022-09-21T07:07:57;10.20;99.90
12578;DHT22;6354;51.026;8.968;2022-09-21T07:10:26;10.40;99.90
12578;DHT22;6354;51.026;8.968;2022-09-21T07:12:54;10.60;99.90
12578;DHT22;6354;51.026;8.968;2022-09-21T07:15:22;10.80;99.90
12578;DHT22;6354;51.026;8.968;2022-09-21T07:17:50;10.80;99.90
12578;DHT22;6354;51.026;8.968;2022-09-21T07:20:31;10.90;99.90
12578;DHT22;6354;51.026;8.968;2022-09-21T07:23:01;11.10;99.90
12578;DHT22;6354;51.026;8.968;2022-09-21T07:25:36;11.20;99.90
12578;DHT22;6354;51.026;8.968;2022-09-21T07:28:05;11.30;99.90
12578;DHT22;6354;51.026;8.968;2022-09-21T07:30:35;11.50;99.90
12578;DHT22;6354;51.026;8.968;2022-09-21T07:33:03;11.70;99.90
12578;DHT22;6354;51.026;8.968;2022-09-21T07:35:32;11.80;99.90
12578;DHT22;6354;51.026;8.968;2022-09-21T07:38:04;11.90;99.90
12578;DHT22;6354;51.026;8.968;2022-09-21T07:40:33;11.80;99.90
12578;DHT22;6354;51.026;8.968;2022-09-21T07:43:01;12.10;99.90
12578;DHT22;6354;51.026;8.968;2022-09-21T07:45:29;12.20;99.90
12578;DHT22;6354;51.026;8.968;2022-09-21T07:48:01;12.50;99.90
12578;DHT22;6354;51.026;8.968;2022-09-21T07:50:30;12.40;99.90
12578;DHT22;6354;51.026;8.968;2022-09-21T07:52:59;12.30;99.90
12578;DHT22;6354;51.026;8.968;2022-09-21T07:55:29;12.20;99.90
12578;DHT22;6354;51.026;8.968;2022-09-21T07:57:57;12.20;99.90
12578;DHT22;6354;51.026;8.968;2022-09-21T08:00:43;12.20;99.90
12578;DHT22;6354;51.026;8.968;2022-09-21T08:03:11;12.20;99.90
12578;DHT22;6354;51.026;8.968;2022-09-21T08:05:40;12.20;99.90
12578;DHT22;6354;51.026;8.968;2022-09-21T08:08:08;12.30;99.90
12578;DHT22;6354;51.026;8.968;2022-09-21T08:10:38;12.40;99.90
12578;DHT22;6354;51.026;8.968;2022-09-21T08:13:06;12.40;99.90
12578;DHT22;6354;51.026;8.968;2022-09-21T08:15:34;12.40;99.90
12578;DHT22;6354;51.026;8.968;2022-09-21T08:18:15;12.40;99.90
12578;DHT22;6354;51.026;8.968;2022-09-21T08:20:43;12.50;99.90
12578;DHT22;6354;51.026;8.968;2022-09-21T08:23:11;12.50;99.90
12578;DHT22;6354;51.026;8.968;2022-09-21T08:25:41;12.60;99.90
12578;DHT22;6354;51.026;8.968;2022-09-21T08:28:10;12.70;99.90
12578;DHT22;6354;51.026;8.968;2022-09-21T08:30:38;12.70;99.90
12578;DHT22;6354;51.026;8.968;2022-09-21T08:33:06;12.70;99.90
12578;DHT22;6354;51.026;8.968;2022-09-21T08:35:34;12.70;99.90
12578;DHT22;6354;51.026;8.968;2022-09-21T08:38:03;12.80;99.90
12578;DHT22;6354;51.026;8.968;2022-09-21T08:40:31;12.90;99.90
12578;DHT22;6354;51.026;8.968;2022-09-21T08:43:04;12.90;99.90
12578;DHT22;6354;51.026;8.968;2022-09-21T08:45:39;12.60;99.90
12578;DHT22;6354;51.026;8.968;2022-09-21T08:48:12;12.50;99.90
12578;DHT22;6354;51.026;8.968;2022-09-21T08:50:44;12.40;99.90
12578;DHT22;6354;51.026;8.968;2022-09-21T08:53:17;12.20;99.90
12578;DHT22;6354;51.026;8.968;2022-09-21T08:55:46;12.20;99.90
12578;DHT22;6354;51.026;8.968;2022-09-21T08:58:21;12.20;99.90
12578;DHT22;6354;51.026;8.968;2022-09-21T09:00:57;12.10;99.90
12578;DHT22;6354;51.026;8.968;2022-09-21T09:03:46;12.30;99.90
12578;DHT22;6354;51.026;8.968;2022-09-21T09:06:26;12.30;99.90
12578;DHT22;6354;51.026;8.968;2022-09-21T09:09:10;12.30;99.90
12578;DHT22;6354;51.026;8.968;2022-09-21T09:11:55;12.30;99.90
12578;DHT22;6354;51.026;8.968;2022-09-21T09:14:39;12.30;99.90
12578;DHT22;6354;51.026;8.968;2022-09-21T09:17:22;12.40;99.90
12578;DHT22;6354;51.026;8.968;2022-09-21T09:19:57;12.40;99.90
12578;DHT22;6354;51.026;8.968;2022-09-21T09:22:31;12.50;99.90
12578;DHT22;6354;51.026;8.968;2022-09-21T09:25:04;12.60;99.90
12578;DHT22;6354;51.026;8.968;2022-09-21T09:27:35;12.60;99.90
12578;DHT22;6354;51.026;8.968;2022-09-21T09:30:14;12.70;99.90
12578;DHT22;6354;51.026;8.968;2022-09-21T09:32:49;12.70;99.90
12578;DHT22;6354;51.026;8.968;2022-09-21T09:35:25;12.90;99.90
12578;DHT22;6354;51.026;8.968;2022-09-21T09:37:57;12.90;99.90
12578;DHT22;6354;51.026;8.968;2022-09-21T09:40:44;13.00;99.90
12578;DHT22;6354;51.026;8.968;2022-09-21T09:43:24;13.20;99.90
12578;DHT22;6354;51.026;8.968;2022-09-21T09:46:04;13.20;99.90
12578;DHT22;6354;51.026;8.968;2022-09-21T09:51:33;13.40;99.90
12578;DHT22;6354;51.026;8.968;2022-09-21T09:54:02;13.50;99.90
12578;DHT22;6354;51.026;8.968;2022-09-21T09:56:35;13.60;99.90
12578;DHT22;6354;51.026;8.968;2022-09-21T09:59:07;13.50;99.90
12578;DHT22;6354;51.026;8.968;2022-09-21T10:01:40;13.50;99.90
12578;DHT22;6354;51.026;8.968;2022-09-21T10:04:10;13.40;99.90
12578;DHT22;6354;51.026;8.968;2022-09-21T10:06:39;13.40;99.90
12578;DHT22;6354;51.026;8.968;2022-09-21T10:09:22;13.40;99.90
12578;DHT22;6354;51.026;8.968;2022-09-21T10:11:51;13.50;99.90
12578;DHT22;6354;51.026;8.968;2022-09-21T10:14:21;13.70;99.90
12578;DHT22;6354;51.026;8.968;2022-09-21T10:16:52;13.90;99.90
12578;DHT22;6354;51.026;8.968;2022-09-21T10:19:23;14.00;99.90
12578;DHT22;6354;51.026;8.968;2022-09-21T10:21:55;14.20;99.90
12578;DHT22;6354;51.026;8.968;2022-09-21T10:24:25;14.20;99.90
12578;DHT22;6354;51.026;8.968;2022-09-21T10:27:00;14.10;99.90
12578;DHT22;6354;51.026;8.968;2022-09-21T10:29:31;13.90;99.90
12578;DHT22;6354;51.026;8.968;2022-09-21T10:32:03;13.90;99.90
12578;DHT22;6354;51.026;8.968;2022-09-21T10:34:40;13.80;99.90
12578;DHT22;6354;51.026;8.968;2022-09-21T10:37:24;13.80;99.90
12578;DHT22;6354;51.026;8.968;2022-09-21T10:39:53;13.80;99.90
12578;DHT22;6354;51.026;8.968;2022-09-21T10:42:22;13.70;99.90
12578;DHT22;6354;51.026;8.968;2022-09-21T10:44:52;13.70;99.90
12578;DHT22;6354;51.026;8.968;2022-09-21T10:47:35;13.70;99.90
12578;DHT22;6354;51.026;8.968;2022-09-21T10:50:05;13.90;99.90
12578;DHT22;6354;51.026;8.968;2022-09-21T10:52:37;14.20;99.90
12578;DHT22;6354;51.026;8.968;2022-09-21T10:55:14;14.30;99.90
12578;DHT22;6354;51.026;8.968;2022-09-21T10:57:43;14.40;99.90
12578;DHT22;6354;51.026;8.968;2022-09-21T11:00:27;14.50;99.90
12578;DHT22;6354;51.026;8.968;2022-09-21T11:03:35;14.60;99.90
12578;DHT22;6354;51.026;8.968;2022-09-21T11:06:12;14.60;99.90
12578;DHT22;6354;51.026;8.968;2022-09-21T11:08:45;14.70;99.90
12578;DHT22;6354;51.026;8.968;2022-09-21T11:11:39;14.80;99.90
12578;DHT22;6354;51.026;8.968;2022-09-21T11:14:21;14.80;99.90
12578;DHT22;6354;51.026;8.968;2022-09-21T11:16:56;14.80;99.90
12578;DHT22;6354;51.026;8.968;2022-09-21T11:19:32;15.00;99.90
12578;DHT22;6354;51.026;8.968;2022-09-21T11:22:06;15.30;99.90
12578;DHT22;6354;51.026;8.968;2022-09-21T11:24:40;15.50;99.90
12578;DHT22;6354;51.026;8.968;2022-09-21T11:27:15;15.50;99.90
12578;DHT22;6354;51.026;8.968;2022-09-21T11:29:52;15.60;99.90
12578;DHT22;6354;51.026;8.968;2022-09-21T11:32:40;15.70;99.90
12578;DHT22;6354;51.026;8.968;2022-09-21T11:35:37;15.80;99.90
12578;DHT22;6354;51.026;8.968;2022-09-21T11:38:11;16.00;99.90
12578;DHT22;6354;51.026;8.968;2022-09-21T11:41:13;16.00;99.90
12578;DHT22;6354;51.026;8.968;2022-09-21T11:44:05;16.20;99.90
12578;DHT22;6354;51.026;8.968;2022-09-21T11:46:43;16.10;99.90
12578;DHT22;6354;51.026;8.968;2022-09-21T11:49:41;16.20;99.90
12578;DHT22;6354;51.026;8.968;2022-09-21T11:52:24;16.30;99.90
12578;DHT22;6354;51.026;8.968;2022-09-21T11:58:00;16.50;99.90
12578;DHT22;6354;51.026;8.968;2022-09-21T12:00:32;16.30;99.90
12578;DHT22;6354;51.026;8.968;2022-09-21T12:03:28;16.30;99.90
12578;DHT22;6354;51.026;8.968;2022-09-21T12:06:09;16.20;99.90
12578;DHT22;6354;51.026;8.968;2022-09-21T12:09:15;15.90;99.90
12578;DHT22;6354;51.026;8.968;2022-09-21T12:11:50;15.80;99.90
12578;DHT22;6354;51.026;8.968;2022-09-21T12:14:28;15.70;99.90
12578;DHT22;6354;51.026;8.968;2022-09-21T12:17:03;15.50;99.90
12578;DHT22;6354;51.026;8.968;2022-09-21T12:19:38;15.40;99.90
12578;DHT22;6354;51.026;8.968;2022-09-21T12:22:11;15.30;99.90
12578;DHT22;6354;51.026;8.968;2022-09-21T12:24:48;15.10;99.90
12578;DHT22;6354;51.026;8.968;2022-09-21T12:27:25;15.00;99.90
12578;DHT22;6354;51.026;8.968;2022-09-21T12:29:58;14.90;99.90
12578;DHT22;6354;51.026;8.968;2022-09-21T12:32:42;14.90;99.90
12578;DHT22;6354;51.026;8.968;2022-09-21T12:35:20;14.80;99.90
12578;DHT22;6354;51.026;8.968;2022-09-21T12:37:55;14.70;99.90
12578;DHT22;6354;51.026;8.968;2022-09-21T12:40:30;14.70;99.90
12578;DHT22;6354;51.026;8.968;2022-09-21T12:43:07;14.70;99.90
12578;DHT22;6354;51.026;8.968;2022-09-21T12:45:43;14.80;99.90
12578;DHT22;6354;51.026;8.968;2022-09-21T12:48:18;14.90;99.90
12578;DHT22;6354;51.026;8.968;2022-09-21T12:50:52;15.10;99.90
12578;DHT22;6354;51.026;8.968;2022-09-21T12:53:24;15.20;99.90
12578;DHT22;6354;51.026;8.968;2022-09-21T12:55:58;15.30;99.90
12578;DHT22;6354;51.026;8.968;2022-09-21T12:58:45;15.50;99.90
12578;DHT22;6354;51.026;8.968;2022-09-21T13:01:24;15.50;99.90
12578;DHT22;6354;51.026;8.968;2022-09-21T13:04:02;15.60;99.90
12578;DHT22;6354;51.026;8.968;2022-09-21T13:06:47;15.70;99.90
12578;DHT22;6354;51.026;8.968;2022-09-21T13:09:23;15.80;99.90
12578;DHT22;6354;51.026;8.968;2022-09-21T13:11:58;15.80;99.90
12578;DHT22;6354;51.026;8.968;2022-09-21T13:14:29;15.80;99.90
12578;DHT22;6354;51.026;8.968;2022-09-21T13:17:01;15.80;99.90
12578;DHT22;6354;51.026;8.968;2022-09-21T13:19:32;16.00;99.90
12578;DHT22;6354;51.026;8.968;2022-09-21T13:22:12;16.10;99.90
12578;DHT22;6354;51.026;8.968;2022-09-21T13:24:56;16.10;99.90
12578;DHT22;6354;51.026;8.968;2022-09-21T13:28:05;16.20;99.90
12578;DHT22;6354;51.026;8.968;2022-09-21T13:30:46;16.20;99.90
12578;DHT22;6354;51.026;8.968;2022-09-21T13:33:37;16.30;99.90
12578;DHT22;6354;51.026;8.968;2022-09-21T13:36:28;16.30;99.90
12578;DHT22;6354;51.026;8.968;2022-09-21T13:39:14;16.30;99.90
12578;DHT22;6354;51.026;8.968;2022-09-21T13:41:44;16.20;99.90
12578;DHT22;6354;51.026;8.968;2022-09-21T13:44:40;16.20;99.90
12578;DHT22;6354;51.026;8.968;2022-09-21T13:47:08;16.10;99.90
12578;DHT22;6354;51.026;8.968;2022-09-21T13:49:44;16.00;99.90
12578;DHT22;6354;51.026;8.968;2022-09-21T13:52:37;16.00;99.90
12578;DHT22;6354;51.026;8.968;2022-09-21T13:55:21;16.10;99.90
12578;DHT22;6354;51.026;8.968;2022-09-21T13:57:53;16.00;99.90
12578;DHT22;6354;51.026;8.968;2022-09-21T14:00:41;15.90;99.90
12578;DHT22;6354;51.026;8.968;2022-09-21T14:03:21;15.70;99.90
12578;DHT22;6354;51.026;8.968;2022-09-21T14:05:51;15.50;99.90
12578;DHT22;6354;51.026;8.968;2022-09-21T14:08:24;15.40;99.90
12578;DHT22;6354;51.026;8.968;2022-09-21T14:10:57;15.30;99.90
12578;DHT22;6354;51.026;8.968;2022-09-21T14:13:31;15.30;99.90
12578;DHT22;6354;51.026;8.968;2022-09-21T14:22:33;15.10;99.90
12578;DHT22;6354;51.026;8.968;2022-09-21T14:28:14;15.30;99.90
12578;DHT22;6354;51.026;8.968;2022-09-21T14:30:50;15.40;99.90
12578;DHT22;6354;51.026;8.968;2022-09-21T14:33:25;15.50;99.90
12578;DHT22;6354;51.026;8.968;2022-09-21T14:35:55;15.50;99.90
12578;DHT22;6354;51.026;8.968;2022-09-21T14:38:28;15.60;99.90
12578;DHT22;6354;51.026;8.968;2022-09-21T14:40:59;15.60;99.90
12578;DHT22;6354;51.026;8.968;2022-09-21T14:43:30;15.60;99.90
12578;DHT22;6354;51.026;8.968;2022-09-21T14:46:18;15.60;99.90
12578;DHT22;6354;51.026;8.968;2022-09-21T14:48:58;15.60;99.90
12578;DHT22;6354;51.026;8.968;2022-09-21T14:51:35;15.60;99.90
12578;DHT22;6354;51.026;8.968;2022-09-21T14:54:17;15.60;99.90
12578;DHT22;6354;51.026;8.968;2022-09-21T14:56:59;15.60;99.90
12578;DHT22;6354;51.026;8.968;2022-09-21T14:59:53;15.60;99.90
12578;DHT22;6354;51.026;8.968;2022-09-21T15:02:26;15.60;99.90
12578;DHT22;6354;51.026;8.968;2022-09-21T15:05:03;15.40;99.90
12578;DHT22;6354;51.026;8.968;2022-09-21T15:07:48;15.50;99.90
12578;DHT22;6354;51.026;8.968;2022-09-21T15:10:52;15.50;99.90
12578;DHT22;6354;51.026;8.968;2022-09-21T15:16:39;15.40;99.90
12578;DHT22;6354;51.026;8.968;2022-09-21T15:19:12;15.30;99.90
12578;DHT22;6354;51.026;8.968;2022-09-21T15:21:43;15.40;99.90
12578;DHT22;6354;51.026;8.968;2022-09-21T15:24:21;15.30;99.90
12578;DHT22;6354;51.026;8.968;2022-09-21T15:26:59;15.20;99.90
12578;DHT22;6354;51.026;8.968;2022-09-21T15:29:30;15.10;99.90
12578;DHT22;6354;51.026;8.968;2022-09-21T15:31:59;15.10;99.90
12578;DHT22;6354;51.026;8.968;2022-09-21T15:34:27;15.00;99.90
12578;DHT22;6354;51.026;8.968;2022-09-21T15:37:05;15.00;99.90
12578;DHT22;6354;51.026;8.968;2022-09-21T15:39:34;14.90;99.90
12578;DHT22;6354;51.026;8.968;2022-09-21T15:42:21;14.90;99.90
12578;DHT22;6354;51.026;8.968;2022-09-21T15:45:03;14.80;99.90
12578;DHT22;6354;51.026;8.968;2022-09-21T15:47:37;14.80;99.90
12578;DHT22;6354;51.026;8.968;2022-09-21T15:50:11;14.70;99.90
12578;DHT22;6354;51.026;8.968;2022-09-21T15:52:44;14.60;99.90
12578;DHT22;6354;51.026;8.968;2022-09-21T15:55:15;14.60;99.90
12578;DHT22;6354;51.026;8.968;2022-09-21T15:57:51;14.60;99.90
12578;DHT22;6354;51.026;8.968;2022-09-21T16:00:24;14.50;99.90
12578;DHT22;6354;51.026;8.968;2022-09-21T16:02:59;14.50;99.90
12578;DHT22;6354;51.026;8.968;2022-09-21T16:05:40;14.50;99.90
12578;DHT22;6354;51.026;8.968;2022-09-21T16:08:25;14.40;99.90
12578;DHT22;6354;51.026;8.968;2022-09-21T16:11:11;14.40;99.90
12578;DHT22;6354;51.026;8.968;2022-09-21T16:13:41;14.40;99.90
12578;DHT22;6354;51.026;8.968;2022-09-21T16:16:27;14.40;99.90
12578;DHT22;6354;51.026;8.968;2022-09-21T16:18:57;14.30;99.90
12578;DHT22;6354;51.026;8.968;2022-09-21T16:21:27;14.30;99.90
12578;DHT22;6354;51.026;8.968;2022-09-21T16:24:09;14.30;99.90
12578;DHT22;6354;51.026;8.968;2022-09-21T16:26:55;14.30;99.90
12578;DHT22;6354;51.026;8.968;2022-09-21T16:29:26;14.30;99.90
12578;DHT22;6354;51.026;8.968;2022-09-21T16:32:18;14.20;99.90
12578;DHT22;6354;51.026;8.968;2022-09-21T16:34:47;14.20;99.90
12578;DHT22;6354;51.026;8.968;2022-09-21T16:37:22;14.20;99.90
12578;DHT22;6354;51.026;8.968;2022-09-21T16:39:52;14.10;99.90
12578;DHT22;6354;51.026;8.968;2022-09-21T16:42:22;14.00;99.90
12578;DHT22;6354;51.026;8.968;2022-09-21T16:44:53;13.90;99.90
12578;DHT22;6354;51.026;8.968;2022-09-21T16:47:23;13.90;99.90
12578;DHT22;6354;51.026;8.968;2022-09-21T16:49:52;13.80;99.90
12578;DHT22;6354;51.026;8.968;2022-09-21T16:52:21;13.70;99.90
12578;DHT22;6354;51.026;8.968;2022-09-21T16:54:49;13.60;99.90
12578;DHT22;6354;51.026;8.968;2022-09-21T16:57:17;13.50;99.90
12578;DHT22;6354;51.026;8.968;2022-09-21T16:59:45;13.50;99.90
12578;DHT22;6354;51.026;8.968;2022-09-21T17:02:17;13.40;99.90
12578;DHT22;6354;51.026;8.968;2022-09-21T17:04:45;13.30;99.90